Time;durP1;ratioP1;P1;durP2;ratioP2;P2;SDS_P1;SDS_P2;PMS_P1;PMS_P2;Temp;Humidity;BMP_temperature;BMP_pressure;BME280_temperature;BME280_humidity;BME280_pressure;Samples;Min_cycle;Max_cycle;Signal;HPM_P1;HPM_P2
2022/04/19 00:02:00;;;;;;;2.28;2.08;;;;;;;12.40;49.35;100062.34;5056967;28;20408;-71
2022/04/19 00:04:26;;;;;;;2.88;2.38;;;;;;;12.45;49.30;100055.03;5071782;28;20388;-71
2022/04/19 00:06:51;;;;;;;2.63;2.43;;;;;;;12.40;49.26;100054.22;5058424;28;20408;-71
2022/04/19 00:09:17;;;;;;;2.43;2.23;;;;;;;12.41;49.25;100048.50;5054185;28;20904;-71
2022/04/19 00:11:42;;;;;;;3.30;2.40;;;;;;;12.42;48.73;100046.59;5066886;28;20530;-71
2022/04/19 00:14:08;;;;;;;2.47;2.27;;;;;;;12.41;48.62;100050.41;5064871;28;20837;-71
2022/04/19 00:16:34;;;;;;;2.70;2.50;;;;;;;12.39;48.63;100044.41;5057810;28;20393;-71
2022/04/19 00:18:59;;;;;;;2.70;2.47;;;;;;;12.28;48.58;100042.75;5051049;28;20914;-71
2022/04/19 00:21:24;;;;;;;3.95;2.78;;;;;;;12.24;48.84;100036.22;5067238;28;20401;-71
2022/04/19 00:23:49;;;;;;;7.27;2.60;;;;;;;12.28;48.70;100040.84;5061256;28;20800;-71
2022/04/19 00:26:15;;;;;;;3.70;2.70;;;;;;;12.28;48.72;100042.75;5051912;28;20393;-71
2022/04/19 00:28:41;;;;;;;3.03;2.73;;;;;;;12.21;49.01;100043.00;5067461;28;20712;-71
2022/04/19 00:31:07;;;;;;;3.90;2.70;;;;;;;12.20;48.63;100037.81;5065327;28;20405;-71
2022/04/19 00:33:32;;;;;;;2.63;2.43;;;;;;;12.11;49.03;100034.81;5064671;28;20395;-71
2022/04/19 00:35:58;;;;;;;4.30;2.63;;;;;;;12.12;49.13;100041.06;5061058;28;20389;-71
2022/04/19 00:38:23;;;;;;;2.63;2.43;;;;;;;12.02;49.28;100035.59;5051724;28;20409;-71
2022/04/19 00:40:48;;;;;;;2.67;2.40;;;;;;;12.02;49.37;100032.88;5067962;28;20387;-71
2022/04/19 00:43:18;;;;;;;2.80;2.60;;;;;;;12.01;49.46;100033.94;5057938;28;20407;-71
2022/04/19 00:45:43;;;;;;;3.22;2.92;;;;;;;12.01;49.36;100029.31;5060858;28;20480;-71
2022/04/19 00:48:10;;;;;;;2.73;2.40;;;;;;;12.02;49.37;100039.09;5057323;28;20498;-71
2022/04/19 00:50:35;;;;;;;3.53;2.42;;;;;;;11.92;49.35;100029.00;5069767;28;20399;-71
2022/04/19 00:53:03;;;;;;;4.60;3.30;;;;;;;11.92;49.12;100031.72;5059666;28;20396;-71
2022/04/19 00:55:29;;;;;;;3.30;3.00;;;;;;;11.96;48.98;100030.09;5060540;28;20389;-71
2022/04/19 00:57:56;;;;;;;4.90;3.13;;;;;;;11.94;49.03;100021.41;5060907;28;20435;-71
2022/04/19 01:00:21;;;;;;;5.95;3.00;;;;;;;11.90;49.06;100028.47;5055249;28;20388;-71
2022/04/19 01:02:47;;;;;;;3.17;2.77;;;;;;;11.85;49.15;100014.88;5070163;28;20408;-71
2022/04/19 01:05:12;;;;;;;4.10;2.33;;;;;;;11.80;49.57;100025.69;5062647;28;20466;-71
2022/04/19 01:07:38;;;;;;;2.77;2.33;;;;;;;11.75;49.69;100022.97;5051371;28;20536;-71
2022/04/19 01:10:04;;;;;;;2.50;2.35;;;;;;;11.75;49.80;100020.25;5063445;28;20403;-71
2022/04/19 01:15:14;;;;;;;2.80;2.28;;;;;;;11.67;50.53;100019.88;5059998;28;20417;-71
2022/04/19 01:17:40;;;;;;;3.17;2.30;;;;;;;11.64;50.32;100023.13;5076948;28;20411;-71
2022/04/19 01:20:07;;;;;;;3.83;2.47;;;;;;;11.65;50.34;100011.19;5078666;28;20441;-71
2022/04/19 01:22:37;;;;;;;4.18;2.38;;;;;;;11.65;50.42;100012.00;5069793;28;20392;-71
2022/04/19 01:25:03;;;;;;;2.72;2.17;;;;;;;11.62;50.42;100017.13;5071895;28;20752;-71
2022/04/19 01:27:28;;;;;;;3.03;2.22;;;;;;;11.59;50.23;100015.75;5081368;28;20387;-71
2022/04/19 01:30:00;;;;;;;2.73;2.30;;;;;;;11.52;49.99;100011.66;5040873;28;20400;-71
2022/04/19 01:32:26;;;;;;;1.98;1.88;;;;;;;11.50;50.04;100014.59;5069198;28;20788;-71
2022/04/19 01:35:07;;;;;;;4.53;2.40;;;;;;;11.46;50.20;100017.03;5066966;28;20411;-71
2022/04/19 01:37:38;;;;;;;2.58;2.00;;;;;;;11.42;50.58;100009.69;5071186;28;20415;-71
2022/04/19 01:40:17;;;;;;;4.55;2.30;;;;;;;11.38;50.81;100008.56;5058962;28;20396;-71
2022/04/19 01:42:58;;;;;;;2.90;2.20;;;;;;;11.21;50.89;100008.72;5078392;28;20882;-71
2022/04/19 01:45:28;;;;;;;2.20;2.10;;;;;;;11.16;51.26;100005.97;5058199;28;20401;-71
2022/04/19 01:47:55;;;;;;;2.80;2.60;;;;;;;11.15;51.19;100009.75;5058621;28;20446;-71
2022/04/19 01:50:22;;;;;;;4.53;3.17;;;;;;;10.85;52.09;100002.19;5067275;28;20478;-71
2022/04/19 01:52:49;;;;;;;3.30;2.40;;;;;;;10.85;52.40;100004.06;5063430;28;20405;-71
2022/04/19 01:55:16;;;;;;;5.32;4.22;;;;;;;10.85;52.19;100014.91;5055882;28;20434;-71
2022/04/19 01:57:42;;;;;;;4.72;3.72;;;;;;;10.78;52.30;100006.16;5058201;28;20411;-71
2022/04/19 02:00:08;;;;;;;8.63;4.75;;;;;;;10.77;52.60;100013.47;5068456;28;20428;-71
2022/04/19 02:02:34;;;;;;;6.43;4.93;;;;;;;10.78;52.48;100011.59;5063353;28;20421;-71
2022/04/19 02:04:59;;;;;;;7.47;4.40;;;;;;;10.77;52.60;100009.94;5054370;28;20502;-71
2022/04/19 02:07:25;;;;;;;8.73;4.60;;;;;;;10.76;52.77;100009.16;5086553;28;20559;-71
2022/04/19 02:09:50;;;;;;;5.10;4.20;;;;;;;10.74;52.71;100010.47;5068235;28;20405;-71
2022/04/19 02:12:15;;;;;;;6.88;4.20;;;;;;;10.73;52.55;100008.84;5062410;28;20469;-71
2022/04/19 02:14:41;;;;;;;6.00;4.07;;;;;;;10.70;52.54;99998.53;5060327;28;20464;-71
2022/04/19 02:17:11;;;;;;;6.23;3.80;;;;;;;10.68;52.49;100004.19;5055666;28;20451;-71
2022/04/19 02:19:36;;;;;;;4.82;3.22;;;;;;;10.65;52.83;100003.88;5087534;28;20419;-71
2022/04/19 02:22:04;;;;;;;5.30;3.73;;;;;;;10.58;52.77;100004.09;5074167;28;20415;-71
2022/04/19 02:24:29;;;;;;;5.15;3.65;;;;;;;10.54;53.08;100002.16;5042539;28;20485;-71
2022/04/19 02:26:54;;;;;;;5.17;3.67;;;;;;;10.52;53.39;100001.56;5068027;28;20841;-71
2022/04/19 02:29:20;;;;;;;3.63;3.00;;;;;;;10.49;53.57;100005.63;5083186;28;20399;-71
2022/04/19 02:31:45;;;;;;;4.00;3.13;;;;;;;10.43;53.62;100003.94;5064387;28;20448;-71
2022/04/19 02:34:11;;;;;;;4.35;3.30;;;;;;;10.42;53.76;100005.00;5066126;28;20841;-71
2022/04/19 02:36:36;;;;;;;4.07;2.90;;;;;;;10.41;53.51;100008.78;5073865;28;20399;-71
2022/04/19 02:39:02;;;;;;;3.70;3.00;;;;;;;10.44;53.89;100008.25;5077703;28;20890;-71
2022/04/19 02:41:28;;;;;;;5.35;2.78;;;;;;;10.43;53.80;100001.22;5082629;28;20439;-71
2022/04/19 02:43:53;;;;;;;4.30;3.83;;;;;;;10.43;53.55;99995.81;5062133;28;20393;-71
2022/04/19 02:46:18;;;;;;;3.67;3.20;;;;;;;10.41;53.66;99989.81;5068630;28;20398;-71
2022/04/19 02:48:44;;;;;;;4.47;3.27;;;;;;;10.40;53.58;99989.03;5077487;28;20763;-71
2022/04/19 02:51:09;;;;;;;3.85;2.90;;;;;;;10.37;53.45;99986.78;5066971;28;20409;-71
2022/04/19 02:53:36;;;;;;;3.40;3.10;;;;;;;10.35;53.50;99985.41;5064605;28;20405;-71
2022/04/19 02:56:03;;;;;;;4.65;2.90;;;;;;;10.29;53.63;99984.56;5064399;28;20403;-71
2022/04/19 02:58:28;;;;;;;4.05;3.13;;;;;;;10.23;54.13;99985.56;5067201;28;20548;-71
2022/04/19 03:00:55;;;;;;;4.88;3.10;;;;;;;10.22;54.43;99988.53;5057691;28;20863;-71
2022/04/19 03:03:20;;;;;;;4.67;3.20;;;;;;;10.18;54.55;99982.78;5068063;28;20575;-71
2022/04/19 03:05:46;;;;;;;4.93;3.80;;;;;;;10.17;54.24;99985.78;5068947;28;20417;-71
2022/04/19 03:08:12;;;;;;;4.72;3.35;;;;;;;10.14;54.40;99987.06;5036939;28;20406;-71
2022/04/19 03:10:37;;;;;;;6.37;3.70;;;;;;;10.11;54.52;99981.34;5057878;28;20411;-70
2022/04/19 03:13:02;;;;;;;4.17;2.80;;;;;;;10.10;54.04;99987.81;5066840;28;20415;-71
2022/04/19 03:15:27;;;;;;;4.33;3.13;;;;;;;10.01;53.97;99984.72;5065942;28;20403;-71
2022/04/19 03:17:53;;;;;;;5.60;3.10;;;;;;;9.94;53.83;99986.84;5063739;28;20464;-71
2022/04/19 03:20:18;;;;;;;6.63;2.90;;;;;;;9.85;53.79;99980.19;5068995;28;20961;-71
2022/04/19 03:28:11;;;;;;;6.50;4.18;;;;;;;9.60;54.43;99982.59;5058892;28;20395;-71
2022/04/19 03:30:37;;;;;;;3.93;3.00;;;;;;;9.65;55.13;99977.25;5072435;28;20405;-71
2022/04/19 03:33:02;;;;;;;7.10;3.22;;;;;;;9.71;55.44;99984.38;5069659;28;20457;-71
2022/04/19 03:35:27;;;;;;;4.63;3.30;;;;;;;9.76;54.73;99984.41;5051823;28;20490;-71
2022/04/19 03:37:52;;;;;;;3.55;3.13;;;;;;;9.70;55.44;99980.84;5067972;28;20461;-71
2022/04/19 03:40:18;;;;;;;3.03;2.77;;;;;;;9.72;55.69;99984.09;5072419;28;20888;-71
2022/04/19 03:42:43;;;;;;;2.70;2.50;;;;;;;9.71;56.24;99987.91;5069881;28;20473;-71
2022/04/19 03:45:12;;;;;;;2.90;2.70;;;;;;;9.65;56.76;99990.78;5069096;28;21003;-71
2022/04/19 03:47:38;;;;;;;2.97;2.70;;;;;;;9.65;56.99;99983.47;5059744;28;20440;-71
2022/04/19 03:50:06;;;;;;;4.33;2.67;;;;;;;9.65;56.83;99990.78;5068403;28;20417;-71
2022/04/19 03:52:34;;;;;;;4.30;2.80;;;;;;;9.65;56.52;99990.78;5078974;28;20898;-71
2022/04/19 03:54:59;;;;;;;3.28;2.88;;;;;;;9.66;56.70;99979.69;5064968;28;20404;-71
2022/04/19 03:57:25;;;;;;;3.00;2.53;;;;;;;9.59;56.92;99994.47;5066647;28;20403;-71
2022/04/19 03:59:51;;;;;;;3.30;3.00;;;;;;;9.61;57.31;99992.34;5056191;28;20756;-71
2022/04/19 04:02:16;;;;;;;4.97;3.17;;;;;;;9.64;56.58;99989.97;5059100;28;20404;-71
2022/04/19 04:04:42;;;;;;;6.37;2.90;;;;;;;9.47;56.06;99994.59;5057995;28;20413;-71
2022/04/19 04:07:07;;;;;;;4.63;3.53;;;;;;;9.29;55.33;99995.66;5055799;28;20763;-71
2022/04/19 04:09:32;;;;;;;5.70;3.20;;;;;;;9.23;55.61;99991.25;5074819;28;20407;-71
2022/04/19 04:12:03;;;;;;;3.53;3.07;;;;;;;9.31;55.91;99990.03;5059379;28;20900;-71
2022/04/19 04:14:32;;;;;;;8.85;3.28;;;;;;;9.35;56.12;99988.47;5068742;28;20758;-71
2022/04/19 04:16:57;;;;;;;6.90;3.58;;;;;;;9.37;55.71;99999.84;5078705;28;20509;-71
2022/04/19 04:19:23;;;;;;;3.50;3.07;;;;;;;9.38;56.21;99996.88;5068111;28;20896;-71
2022/04/19 04:21:48;;;;;;;6.40;3.43;;;;;;;9.39;56.11;99998.53;5063720;28;21038;-71
2022/04/19 04:24:13;;;;;;;4.70;3.47;;;;;;;9.40;56.02;99996.63;5069212;28;20412;-71
2022/04/19 04:26:39;;;;;;;5.00;3.80;;;;;;;9.41;56.28;100005.56;5069053;28;20449;-71
2022/04/19 04:29:04;;;;;;;4.70;4.20;;;;;;;9.39;57.18;100009.34;5071063;28;20888;-71
2022/04/19 04:31:29;;;;;;;4.20;3.60;;;;;;;9.44;56.70;100002.38;5060219;28;20404;-71
2022/04/19 04:33:54;;;;;;;5.80;3.10;;;;;;;9.42;56.44;100001.81;5060630;28;20423;-71
2022/04/19 04:36:20;;;;;;;4.73;3.50;;;;;;;9.38;55.73;100005.00;5068446;28;20387;-71
2022/04/19 04:38:46;;;;;;;6.03;3.30;;;;;;;9.32;55.81;100000.56;5069735;28;20771;-71
2022/04/19 04:41:13;;;;;;;8.50;4.03;;;;;;;9.24;55.44;100005.59;5057951;28;20425;-71
2022/04/19 04:43:39;;;;;;;5.20;3.40;;;;;;;9.11;55.25;100001.34;5057320;28;20547;-71
2022/04/19 04:51:33;;;;;;;3.33;2.90;;;;;;;8.96;55.52;100005.69;5069739;28;20394;-71
2022/04/19 04:53:59;;;;;;;4.50;3.00;;;;;;;8.90;55.70;100002.06;5058810;28;20381;-71
2022/04/19 04:56:24;;;;;;;3.80;2.73;;;;;;;8.89;55.29;100010.44;5070019;28;20392;-71
2022/04/19 04:58:49;;;;;;;3.33;3.03;;;;;;;8.87;55.67;100007.97;5062850;28;20422;-71
2022/04/19 05:01:15;;;;;;;3.63;2.90;;;;;;;8.85;55.78;100005.53;5066899;28;20422;-71
2022/04/19 05:03:40;;;;;;;6.22;3.40;;;;;;;8.83;56.13;100012.22;5068083;28;20406;-71
2022/04/19 05:06:05;;;;;;;3.77;2.97;;;;;;;8.68;56.45;100010.06;5055577;28;20393;-71
2022/04/19 05:08:31;;;;;;;4.50;3.40;;;;;;;8.69;56.86;100014.41;5067282;28;20397;-71
2022/04/19 05:10:56;;;;;;;4.37;3.13;;;;;;;8.75;56.68;100012.63;5052118;28;20744;-70
2022/04/19 05:13:21;;;;;;;4.13;3.03;;;;;;;8.80;56.52;100012.69;5062856;28;20391;-71
2022/04/19 05:15:47;;;;;;;4.87;3.63;;;;;;;8.79;56.94;100014.56;5067445;28;20383;-71
2022/04/19 05:18:14;;;;;;;4.27;3.90;;;;;;;8.84;57.22;100017.38;5051907;28;20476;-71
2022/04/19 05:20:40;;;;;;;5.45;3.92;;;;;;;8.92;56.56;100018.88;5057935;28;20388;-71
2022/04/19 05:23:06;;;;;;;8.88;4.43;;;;;;;8.97;56.57;100018.94;5042523;28;20437;-71
2022/04/19 05:25:31;;;;;;;5.70;4.00;;;;;;;9.01;56.06;100020.09;5062080;28;20452;-71
2022/04/19 05:27:57;;;;;;;7.93;4.20;;;;;;;9.03;55.98;100019.84;5068828;28;20886;-71
2022/04/19 05:30:22;;;;;;;12.57;4.55;;;;;;;9.04;56.08;100014.19;5061550;28;20418;-71
2022/04/19 05:32:48;;;;;;;8.80;4.20;;;;;;;8.85;56.86;100020.91;5075840;28;20406;-71
2022/04/19 05:35:13;;;;;;;11.85;4.57;;;;;;;8.68;57.72;100018.19;5070877;28;20411;-70
2022/04/19 05:37:39;;;;;;;7.47;4.17;;;;;;;8.63;58.54;100017.25;5057138;28;20395;-71
2022/04/19 05:40:05;;;;;;;8.87;4.20;;;;;;;8.75;57.92;100028.84;5066114;28;20393;-71
2022/04/19 05:42:30;;;;;;;8.02;4.53;;;;;;;8.91;57.29;100028.03;5058747;28;20393;-70
2022/04/19 05:44:55;;;;;;;7.83;4.23;;;;;;;8.95;57.41;100031.06;5057288;28;20430;-71
2022/04/19 05:47:21;;;;;;;8.13;4.23;;;;;;;8.89;58.05;100032.88;5047928;28;20408;-71
2022/04/19 05:49:46;;;;;;;7.32;4.53;;;;;;;8.85;58.06;100037.94;5071357;28;20392;-70
2022/04/19 05:52:11;;;;;;;8.87;7.27;;;;;;;8.93;58.64;100035.88;5059757;28;20404;-71
2022/04/19 05:54:37;;;;;;;7.13;4.40;;;;;;;8.93;58.98;100039.41;5069953;28;20402;-71
2022/04/19 05:57:02;;;;;;;3.77;3.33;;;;;;;8.88;58.76;100039.34;5068351;28;20415;-72
2022/04/19 05:59:27;;;;;;;5.93;4.05;;;;;;;8.85;59.02;100045.22;5072953;28;20415;-71
2022/04/19 06:04:57;;;;;;;7.13;4.88;;;;;;;8.95;59.15;100042.69;5070896;28;20441;-72
2022/04/19 06:07:26;;;;;;;4.85;3.90;;;;;;;9.16;58.95;100038.44;5062893;28;20439;-70
2022/04/19 06:09:52;;;;;;;7.30;4.60;;;;;;;9.32;58.34;100038.44;5068979;28;20408;-70
2022/04/19 06:12:18;;;;;;;8.77;4.93;;;;;;;9.46;57.63;100041.63;5071863;28;20882;-70
2022/04/19 06:14:44;;;;;;;6.72;4.10;;;;;;;9.57;57.00;100046.13;5065224;28;20942;-71
2022/04/19 06:17:16;;;;;;;6.22;5.00;;;;;;;9.57;57.22;100048.81;5086479;28;20485;-71
2022/04/19 06:19:42;;;;;;;5.53;5.03;;;;;;;9.55;57.65;100042.03;5064943;28;20416;-72
2022/04/19 06:22:08;;;;;;;8.27;5.47;;;;;;;9.65;57.29;100045.69;5062856;28;20394;-71
2022/04/19 06:24:34;;;;;;;5.70;4.50;;;;;;;9.77;57.13;100045.59;5065673;28;20400;-70
2022/04/19 06:26:59;;;;;;;7.55;4.70;;;;;;;9.86;56.80;100047.63;5071629;28;20391;-71
2022/04/19 06:29:24;;;;;;;4.23;3.90;;;;;;;9.95;56.94;100050.69;5080949;28;20424;-70
2022/04/19 06:31:49;;;;;;;8.47;5.10;;;;;;;9.98;56.18;100046.69;5044966;28;20763;-72
2022/04/19 06:34:16;;;;;;;7.93;5.20;;;;;;;9.92;56.04;100045.78;5065204;28;20419;-70
2022/04/19 06:36:42;;;;;;;7.72;5.15;;;;;;;10.00;56.08;100049.97;5062030;28;20403;-70
2022/04/19 06:39:07;;;;;;;9.73;4.38;;;;;;;10.08;55.64;100044.09;5069889;28;20845;-71
2022/04/19 06:41:33;;;;;;;5.17;4.20;;;;;;;10.10;55.00;100050.09;5066792;28;20454;-71
2022/04/19 06:43:59;;;;;;;4.83;4.30;;;;;;;10.14;55.21;100051.28;5065740;28;20736;-71
2022/04/19 06:46:25;;;;;;;9.30;4.38;;;;;;;10.21;55.39;100044.56;5064467;28;20754;-71
2022/04/19 06:48:56;;;;;;;6.30;4.60;;;;;;;10.29;55.23;100048.72;5057366;28;20433;-70
2022/04/19 06:51:23;;;;;;;5.90;4.05;;;;;;;10.33;55.00;100053.41;5051180;28;20396;-71
2022/04/19 06:53:48;;;;;;;5.00;3.97;;;;;;;10.41;54.89;100052.13;5056763;28;20876;-71
2022/04/19 06:56:14;;;;;;;7.45;4.60;;;;;;;10.49;55.04;100053.56;5066364;28;20403;-70
2022/04/19 06:58:39;;;;;;;5.70;3.83;;;;;;;10.47;54.99;100051.13;5057793;28;20419;-70
2022/04/19 07:01:06;;;;;;;13.57;4.53;;;;;;;10.52;54.63;100051.16;5065859;28;20405;-71
2022/04/19 07:03:33;;;;;;;7.78;4.28;;;;;;;10.55;54.47;100053.38;5064161;28;20398;-71
2022/04/19 07:05:58;;;;;;;5.30;4.78;;;;;;;10.60;54.63;100055.31;5061898;28;20440;-70
2022/04/19 07:08:24;;;;;;;7.18;4.75;;;;;;;10.59;54.73;100050.97;5065501;28;20906;-70
2022/04/19 07:10:49;;;;;;;6.17;4.70;;;;;;;10.65;54.86;100064.31;5039533;28;20421;-71
2022/04/19 07:13:14;;;;;;;5.45;4.38;;;;;;;10.71;54.34;100057.06;5066409;28;20407;-71
2022/04/19 07:15:40;;;;;;;4.47;4.07;;;;;;;10.72;54.63;100056.81;5059936;28;20433;-70
2022/04/19 07:18:05;;;;;;;6.00;3.90;;;;;;;10.75;54.33;100059.00;5066828;28;20449;-70
2022/04/19 07:28:56;;;;;;;4.35;3.63;;;;;;;10.89;54.40;100049.41;5043435;28;20396;-70
2022/04/19 07:31:21;;;;;;;6.43;3.50;;;;;;;10.93;54.77;100045.06;5072873;28;20392;-71
2022/04/19 07:33:46;;;;;;;6.70;4.07;;;;;;;10.93;54.62;100050.50;5082688;28;20751;-70
2022/04/19 07:36:12;;;;;;;3.90;3.60;;;;;;;10.99;54.78;100045.97;5069514;28;20410;-70
2022/04/19 07:38:37;;;;;;;5.20;3.63;;;;;;;11.06;55.13;100040.31;5060198;28;20430;-70
2022/04/19 07:41:04;;;;;;;6.20;3.50;;;;;;;11.11;55.69;100048.50;5070146;28;20404;-71
2022/04/19 07:43:29;;;;;;;6.32;4.20;;;;;;;11.19;55.07;100037.19;5072690;28;20380;-70
2022/04/19 07:45:54;;;;;;;8.13;3.80;;;;;;;11.25;55.13;100038.84;5068175;28;20435;-71
2022/04/19 07:48:20;;;;;;;6.57;3.20;;;;;;;11.34;55.29;100042.72;5054125;28;20485;-70
2022/04/19 07:50:46;;;;;;;6.90;4.07;;;;;;;11.42;54.76;100045.78;5058101;28;20479;-70
2022/04/19 07:53:11;;;;;;;9.63;3.70;;;;;;;11.43;54.48;100033.81;5068646;28;20871;-71
2022/04/19 07:55:36;;;;;;;6.10;3.70;;;;;;;11.55;54.46;100028.22;5068776;28;20408;-71
2022/04/19 07:58:03;;;;;;;4.43;3.43;;;;;;;11.66;54.06;100027.19;5060925;28;20864;-70
2022/04/19 08:00:28;;;;;;;4.65;3.63;;;;;;;11.78;53.43;100027.84;5056029;28;20413;-71
2022/04/19 08:02:58;;;;;;;5.30;3.53;;;;;;;11.83;53.11;100017.00;5067228;28;20388;-70
2022/04/19 08:05:24;;;;;;;5.22;3.40;;;;;;;11.85;53.01;100023.00;5061658;28;20775;-70
2022/04/19 08:07:50;;;;;;;4.85;3.42;;;;;;;11.90;52.95;100014.88;5069845;28;20411;-71
2022/04/19 08:10:17;;;;;;;5.73;3.37;;;;;;;12.02;53.01;100019.28;5066188;28;20384;-71
2022/04/19 08:12:42;;;;;;;8.98;3.40;;;;;;;12.14;52.93;100020.69;5059255;28;20401;-70
2022/04/19 08:15:08;;;;;;;5.47;4.13;;;;;;;12.27;52.81;100022.09;5054882;28;20390;-71
2022/04/19 08:17:34;;;;;;;6.67;3.20;;;;;;;12.45;52.57;100016.16;5069729;28;20410;-71
2022/04/19 08:19:59;;;;;;;9.63;3.83;;;;;;;12.56;51.71;100009.69;5068327;28;20867;-71
2022/04/19 08:22:24;;;;;;;7.40;3.47;;;;;;;12.65;51.54;100013.50;5058494;28;20620;-71
2022/04/19 08:24:50;;;;;;;7.17;3.70;;;;;;;12.69;51.19;100014.59;5057008;28;20414;-71
2022/04/19 08:27:16;;;;;;;8.53;3.73;;;;;;;12.74;50.41;100014.63;5067142;28;20407;-71
2022/04/19 08:29:43;;;;;;;3.83;3.40;;;;;;;12.81;50.26;100006.19;5067327;28;20393;-71
2022/04/19 08:32:09;;;;;;;4.57;4.00;;;;;;;12.86;50.16;100017.88;5062825;28;20465;-72
2022/04/19 08:34:34;;;;;;;8.75;3.40;;;;;;;12.97;50.16;100016.78;5041557;28;20406;-71
2022/04/19 08:36:59;;;;;;;4.97;4.17;;;;;;;13.08;49.97;100012.19;5071002;28;20883;-71
2022/04/19 08:39:24;;;;;;;8.73;4.53;;;;;;;13.19;49.67;100004.88;5063719;28;20417;-72
2022/04/19 08:41:50;;;;;;;7.03;3.97;;;;;;;13.32;49.89;100007.03;5064619;28;20411;-72
2022/04/19 08:44:15;;;;;;;6.70;4.15;;;;;;;13.39;48.32;100013.03;5058110;28;20482;-71
2022/04/19 08:46:42;;;;;;;9.10;3.70;;;;;;;13.46;47.60;99998.06;5065791;28;20392;-71
2022/04/19 08:49:09;;;;;;;8.13;4.15;;;;;;;13.62;47.74;100008.91;5073282;28;20441;-71
2022/04/19 08:51:36;;;;;;;6.05;3.88;;;;;;;13.80;47.15;100008.28;5055218;28;23196;-71
2022/04/19 08:59:31;;;;;;;4.65;3.45;;;;;;;14.96;45.63;99996.81;5062872;28;20464;-72
2022/04/19 09:01:59;;;;;;;4.30;3.40;;;;;;;15.34;44.61;99992.41;5057958;28;20394;-72
2022/04/19 09:04:25;;;;;;;5.55;3.22;;;;;;;15.68;43.69;100000.53;5067521;28;20399;-72
2022/04/19 09:06:56;;;;;;;13.02;3.88;;;;;;;16.14;42.42;99987.97;5066245;28;20400;-69
2022/04/19 09:09:29;;;;;;;3.35;3.00;;;;;;;16.62;41.09;99988.75;5070999;28;20388;-70
2022/04/19 09:12:06;;;;;;;4.18;2.90;;;;;;;16.87;38.87;99990.25;5048186;28;20427;-72
2022/04/19 09:14:31;;;;;;;4.00;3.50;;;;;;;17.11;38.59;99986.31;5037488;28;20801;-72
2022/04/19 09:17:05;;;;;;;4.77;3.13;;;;;;;17.52;37.82;99985.59;5071341;28;20387;-72
2022/04/19 09:19:31;;;;;;;12.88;3.67;;;;;;;17.82;37.63;99981.50;5074193;28;20418;-72
2022/04/19 09:21:57;;;;;;;3.28;2.97;;;;;;;18.04;36.99;99982.44;5075151;28;20772;-73
2022/04/19 09:24:23;;;;;;;4.45;3.00;;;;;;;18.43;35.56;99973.63;5039246;28;20867;-73
2022/04/19 09:26:49;;;;;;;3.22;2.92;;;;;;;18.88;34.69;99976.47;5060720;28;20452;-74
2022/04/19 09:29:23;;;;;;;6.67;3.23;;;;;;;19.51;34.63;99973.50;5064766;28;20890;-72
2022/04/19 09:31:52;;;;;;;3.63;3.30;;;;;;;20.07;33.27;99973.59;5070974;28;20395;-71
2022/04/19 09:34:25;;;;;;;6.55;3.85;;;;;;;21.11;31.32;99975.34;5064724;28;20389;-71
2022/04/19 09:37:04;;;;;;;13.07;4.43;;;;;;;22.14;28.89;99977.78;5062232;28;20396;-71
2022/04/19 09:39:29;;;;;;;4.25;3.80;;;;;;;23.10;27.72;99967.66;5081163;28;20410;-71
2022/04/19 09:42:06;;;;;;;11.97;3.17;;;;;;;23.59;26.45;99963.91;5077939;28;20437;-71
2022/04/19 09:44:39;;;;;;;5.45;3.13;;;;;;;23.52;27.01;99965.63;5046757;28;20434;-72
2022/04/19 09:47:06;;;;;;;3.92;3.25;;;;;;;24.18;25.85;99958.78;5065143;28;20407;-72
2022/04/19 09:49:41;;;;;;;3.88;3.22;;;;;;;24.76;25.42;99957.38;5087260;28;20398;-72
2022/04/19 09:52:06;;;;;;;3.03;2.83;;;;;;;24.38;25.65;99953.44;5072907;28;20392;-71
2022/04/19 09:54:32;;;;;;;3.70;2.77;;;;;;;23.80;25.76;99944.47;5062133;28;20400;-70
2022/04/19 09:57:09;;;;;;;4.40;2.97;;;;;;;23.47;27.02;99949.25;5067331;28;20391;-71
2022/04/19 09:59:43;;;;;;;3.85;3.10;;;;;;;23.50;26.94;99937.50;5073454;28;20770;-71
2022/04/19 10:10:24;;;;;;;3.90;2.88;;;;;;;26.79;22.00;99933.63;5062359;28;20447;-70
2022/04/19 10:12:53;;;;;;;4.80;3.00;;;;;;;27.68;20.70;99934.19;5070762;28;20412;-71
2022/04/19 10:15:19;;;;;;;2.95;2.67;;;;;;;27.77;19.56;99931.13;5078607;28;20410;-71
2022/04/19 10:17:45;;;;;;;2.50;2.30;;;;;;;28.05;19.54;99922.44;5072442;28;20396;-71
2022/04/19 10:20:11;;;;;;;3.38;2.80;;;;;;;28.37;18.83;99939.66;5044715;28;20887;-71
2022/04/19 10:22:45;;;;;;;4.93;3.47;;;;;;;28.53;18.73;99929.94;5052559;28;20395;-71
2022/04/19 10:25:12;;;;;;;4.63;3.75;;;;;;;29.24;18.91;99919.66;5070095;28;20735;-71
2022/04/19 10:27:38;;;;;;;3.20;3.00;;;;;;;29.53;18.33;99923.56;5072672;28;20851;-71
2022/04/19 10:30:05;;;;;;;4.20;3.87;;;;;;;30.13;18.35;99922.06;5073727;28;20488;-71
2022/04/19 10:32:33;;;;;;;3.70;3.40;;;;;;;30.34;17.00;99911.03;5057777;28;20393;-71
2022/04/19 10:35:00;;;;;;;5.63;3.20;;;;;;;30.59;17.21;99921.56;5066055;28;20438;-72
2022/04/19 10:37:26;;;;;;;4.03;3.20;;;;;;;30.52;17.40;99921.53;5057623;28;20419;-71
2022/04/19 10:40:03;;;;;;;4.70;3.85;;;;;;;30.68;17.26;99917.22;5054651;28;20417;-72
2022/04/19 10:42:32;;;;;;;5.28;3.90;;;;;;;30.76;16.55;99918.03;5085213;28;20400;-72
2022/04/19 10:45:18;;;;;;;5.68;4.22;;;;;;;30.71;15.91;99924.03;5054084;28;20405;-72
2022/04/19 10:47:59;;;;;;;3.78;3.47;;;;;;;30.49;16.43;99913.94;5070910;28;20410;-72
2022/04/19 10:50:24;;;;;;;4.50;4.20;;;;;;;30.86;16.20;99917.28;5069674;28;20388;-72
2022/04/19 10:52:50;;;;;;;4.50;3.37;;;;;;;30.43;15.26;99909.91;5065046;28;20405;-70
2022/04/19 10:55:23;;;;;;;3.65;3.35;;;;;;;30.01;16.53;99902.81;5062175;28;20384;-69
2022/04/19 10:58:15;;;;;;;3.78;3.55;;;;;;;30.54;15.50;99905.16;5059670;28;20480;-69
2022/04/19 11:00:41;;;;;;;4.60;3.40;;;;;;;29.80;16.05;99900.63;5056125;28;20970;-69
2022/04/19 11:03:06;;;;;;;5.85;3.47;;;;;;;30.12;16.72;99900.09;5063067;28;20502;-69
2022/04/19 11:05:48;;;;;;;3.78;3.47;;;;;;;30.27;16.15;99902.59;5061705;28;20784;-70
2022/04/19 11:08:25;;;;;;;2.70;2.60;;;;;;;30.96;16.60;99904.53;5069413;28;20396;-70
2022/04/19 11:11:23;;;;;;;2.30;2.13;;;;;;;31.41;14.96;99892.66;5062170;28;20393;-70
2022/04/19 11:14:34;;;;;;;2.80;2.05;;;;;;;30.61;14.82;99900.41;5066762;28;20430;-70
2022/04/19 11:17:19;;;;;;;2.28;2.17;;;;;;;30.90;14.59;99884.53;5081491;28;20396;-70
2022/04/19 11:19:52;;;;;;;4.35;2.15;;;;;;;31.16;15.90;99892.63;5055097;28;20421;-69
2022/04/19 11:22:29;;;;;;;2.22;2.05;;;;;;;31.06;15.21;99890.59;5057467;28;20916;-70
2022/04/19 11:25:02;;;;;;;2.30;2.20;;;;;;;31.00;15.52;99888.56;5062862;28;20971;-70
2022/04/19 11:27:52;;;;;;;1.88;1.85;;;;;;;31.21;14.93;99881.03;5057137;28;20991;-70
2022/04/19 11:30:19;;;;;;;3.00;2.60;;;;;;;30.91;14.75;99882.53;5059700;28;20933;-70
2022/04/19 11:32:49;;;;;;;3.10;2.07;;;;;;;31.02;15.32;99877.81;5063430;28;20455;-70
2022/04/19 11:35:16;;;;;;;2.03;1.83;;;;;;;30.97;15.20;99880.97;5054894;28;20408;-70
2022/04/19 11:37:42;;;;;;;2.20;2.10;;;;;;;30.92;15.56;99870.16;5077633;28;20404;-70
2022/04/19 11:48:29;;;;;;;2.03;1.88;;;;;;;30.19;15.07;99866.63;5055210;28;20776;-70
2022/04/19 11:51:05;;;;;;;2.95;2.20;;;;;;;30.28;15.71;99859.47;5059421;28;20869;-70
2022/04/19 11:53:30;;;;;;;2.30;1.85;;;;;;;30.57;15.37;99856.84;5055076;28;20415;-70
2022/04/19 11:55:59;;;;;;;2.20;2.07;;;;;;;30.86;15.64;99852.94;5055047;28;20923;-70
2022/04/19 11:58:24;;;;;;;2.33;1.88;;;;;;;31.05;15.51;99852.63;5066047;28;20409;-70
2022/04/19 12:01:16;;;;;;;6.60;2.00;;;;;;;31.11;15.30;99850.22;5069184;28;20778;-71
2022/04/19 12:03:42;;;;;;;2.17;1.80;;;;;;;30.91;15.34;99849.75;5055066;28;20405;-70
2022/04/19 12:06:14;;;;;;;2.28;2.10;;;;;;;31.14;15.12;99853.03;5060829;28;20393;-69
2022/04/19 12:08:41;;;;;;;2.45;2.33;;;;;;;31.27;15.21;99834.66;5053473;28;20892;-70
2022/04/19 12:11:11;;;;;;;3.60;2.22;;;;;;;31.78;14.83;99839.06;5069288;28;20399;-71
2022/04/19 12:13:37;;;;;;;2.17;2.08;;;;;;;31.81;13.70;99843.88;5085691;28;20877;-71
2022/04/19 12:16:04;;;;;;;1.70;1.60;;;;;;;31.48;13.54;99839.47;5062227;28;20488;-71
2022/04/19 12:21:38;;;;;;;2.00;1.88;;;;;;;30.95;13.63;99853.38;5092438;27;20401;-71
2022/04/19 12:24:05;;;;;;;2.10;2.00;;;;;;;30.98;14.13;99840.63;5048672;28;20954;-71